sensor_id;sensor_type;location;lat;lon;timestamp;P1;durP1;ratioP1;P2;durP2;ratioP2
34184;SDS011;20454;48.100;11.776;2022-09-09T00:15:29;0.85;;;0.80;;
34184;SDS011;20454;48.100;11.776;2022-09-09T00:21:19;1.10;;;0.80;;
34184;SDS011;20454;48.100;11.776;2022-09-09T00:23:58;1.98;;;1.15;;
34184;SDS011;20454;48.100;11.776;2022-09-09T00:26:45;2.05;;;0.98;;
34184;SDS011;20454;48.100;11.776;2022-09-09T00:32:00;1.95;;;1.10;;
34184;SDS011;20454;48.100;11.776;2022-09-09T00:34:46;0.85;;;0.85;;
34184;SDS011;20454;48.100;11.776;2022-09-09T00:37:19;0.75;;;0.75;;
34184;SDS011;20454;48.100;11.776;2022-09-09T00:39:47;1.30;;;1.20;;
34184;SDS011;20454;48.100;11.776;2022-09-09T00:42:23;1.13;;;1.02;;
34184;SDS011;20454;48.100;11.776;2022-09-09T00:45:02;1.92;;;0.70;;
34184;SDS011;20454;48.100;11.776;2022-09-09T00:47:44;0.80;;;0.80;;
34184;SDS011;20454;48.100;11.776;2022-09-09T00:56:55;2.83;;;1.00;;
34184;SDS011;20454;48.100;11.776;2022-09-09T01:02:28;1.10;;;1.00;;
34184;SDS011;20454;48.100;11.776;2022-09-09T01:05:10;1.20;;;1.10;;
34184;SDS011;20454;48.100;11.776;2022-09-09T01:07:47;1.20;;;1.00;;
34184;SDS011;20454;48.100;11.776;2022-09-09T01:10:19;0.82;;;0.82;;
34184;SDS011;20454;48.100;11.776;2022-09-09T01:13:02;1.00;;;0.95;;
34184;SDS011;20454;48.100;11.776;2022-09-09T01:15:38;0.93;;;0.90;;
34184;SDS011;20454;48.100;11.776;2022-09-09T01:18:07;1.65;;;0.70;;
34184;SDS011;20454;48.100;11.776;2022-09-09T01:20:43;0.75;;;0.75;;
34184;SDS011;20454;48.100;11.776;2022-09-09T01:26:43;4.07;;;1.27;;
34184;SDS011;20454;48.100;11.776;2022-09-09T01:29:12;0.90;;;0.80;;
34184;SDS011;20454;48.100;11.776;2022-09-09T01:31:53;2.63;;;0.90;;
34184;SDS011;20454;48.100;11.776;2022-09-09T01:34:24;0.80;;;0.80;;
34184;SDS011;20454;48.100;11.776;2022-09-09T01:39:26;1.80;;;0.90;;
34184;SDS011;20454;48.100;11.776;2022-09-09T01:41:53;1.30;;;0.80;;
34184;SDS011;20454;48.100;11.776;2022-09-09T01:44:20;0.90;;;0.90;;
34184;SDS011;20454;48.100;11.776;2022-09-09T01:46:47;2.42;;;0.90;;
34184;SDS011;20454;48.100;11.776;2022-09-09T01:49:13;0.70;;;0.70;;
34184;SDS011;20454;48.100;11.776;2022-09-09T01:51:39;1.80;;;1.00;;
34184;SDS011;20454;48.100;11.776;2022-09-09T01:54:07;0.75;;;0.75;;
34184;SDS011;20454;48.100;11.776;2022-09-09T02:04:43;1.33;;;0.90;;
34184;SDS011;20454;48.100;11.776;2022-09-09T02:07:48;2.05;;;0.88;;
34184;SDS011;20454;48.100;11.776;2022-09-09T02:10:20;0.60;;;0.60;;
34184;SDS011;20454;48.100;11.776;2022-09-09T02:13:14;0.70;;;0.70;;
34184;SDS011;20454;48.100;11.776;2022-09-09T02:15:48;1.08;;;0.70;;
34184;SDS011;20454;48.100;11.776;2022-09-09T02:18:38;0.70;;;0.70;;
34184;SDS011;20454;48.100;11.776;2022-09-09T02:21:22;1.27;;;1.00;;
34184;SDS011;20454;48.100;11.776;2022-09-09T02:23:50;0.70;;;0.70;;
34184;SDS011;20454;48.100;11.776;2022-09-09T02:26:18;2.70;;;1.05;;
34184;SDS011;20454;48.100;11.776;2022-09-09T02:28:50;1.67;;;0.65;;
34184;SDS011;20454;48.100;11.776;2022-09-09T02:31:19;0.95;;;0.80;;
34184;SDS011;20454;48.100;11.776;2022-09-09T02:34:00;0.85;;;0.85;;
34184;SDS011;20454;48.100;11.776;2022-09-09T02:36:29;0.50;;;0.50;;
34184;SDS011;20454;48.100;11.776;2022-09-09T02:39:00;0.85;;;0.85;;
34184;SDS011;20454;48.100;11.776;2022-09-09T02:41:28;1.60;;;0.80;;
34184;SDS011;20454;48.100;11.776;2022-09-09T02:43:58;0.70;;;0.70;;
34184;SDS011;20454;48.100;11.776;2022-09-09T02:52:15;0.95;;;0.95;;
34184;SDS011;20454;48.100;11.776;2022-09-09T02:54:47;1.92;;;0.85;;
34184;SDS011;20454;48.100;11.776;2022-09-09T02:57:21;0.73;;;0.73;;
34184;SDS011;20454;48.100;11.776;2022-09-09T02:59:50;1.33;;;1.23;;
34184;SDS011;20454;48.100;11.776;2022-09-09T03:02:20;0.70;;;0.70;;
34184;SDS011;20454;48.100;11.776;2022-09-09T03:04:45;0.77;;;0.77;;
34184;SDS011;20454;48.100;11.776;2022-09-09T03:07:15;1.13;;;1.02;;
34184;SDS011;20454;48.100;11.776;2022-09-09T03:09:42;2.28;;;0.93;;
34184;SDS011;20454;48.100;11.776;2022-09-09T03:12:08;2.22;;;0.82;;
34184;SDS011;20454;48.100;11.776;2022-09-09T03:14:36;0.90;;;0.90;;
34184;SDS011;20454;48.100;11.776;2022-09-09T03:17:03;1.90;;;0.93;;
34184;SDS011;20454;48.100;11.776;2022-09-09T03:19:30;4.32;;;1.05;;
34184;SDS011;20454;48.100;11.776;2022-09-09T03:21:56;1.00;;;0.80;;
34184;SDS011;20454;48.100;11.776;2022-09-09T03:24:25;0.77;;;0.75;;
34184;SDS011;20454;48.100;11.776;2022-09-09T03:26:51;0.80;;;0.80;;
34184;SDS011;20454;48.100;11.776;2022-09-09T03:29:17;1.17;;;1.08;;
34184;SDS011;20454;48.100;11.776;2022-09-09T03:31:43;1.50;;;0.82;;
34184;SDS011;20454;48.100;11.776;2022-09-09T03:34:09;2.33;;;0.70;;
34184;SDS011;20454;48.100;11.776;2022-09-09T03:36:36;1.40;;;0.80;;
34184;SDS011;20454;48.100;11.776;2022-09-09T03:39:02;1.23;;;0.80;;
34184;SDS011;20454;48.100;11.776;2022-09-09T03:41:28;0.95;;;0.95;;
34184;SDS011;20454;48.100;11.776;2022-09-09T03:43:55;0.70;;;0.70;;
34184;SDS011;20454;48.100;11.776;2022-09-09T03:46:21;2.35;;;0.70;;
34184;SDS011;20454;48.100;11.776;2022-09-09T03:48:50;0.80;;;0.80;;
34184;SDS011;20454;48.100;11.776;2022-09-09T03:51:17;1.05;;;0.90;;
34184;SDS011;20454;48.100;11.776;2022-09-09T03:53:43;2.28;;;0.80;;
34184;SDS011;20454;48.100;11.776;2022-09-09T03:56:09;2.35;;;0.80;;
34184;SDS011;20454;48.100;11.776;2022-09-09T03:58:38;1.40;;;1.17;;
34184;SDS011;20454;48.100;11.776;2022-09-09T06:02:52;0.60;;;0.60;;
34184;SDS011;20454;48.100;11.776;2022-09-09T06:05:19;0.80;;;0.80;;
34184;SDS011;20454;48.100;11.776;2022-09-09T06:07:45;1.20;;;0.70;;
34184;SDS011;20454;48.100;11.776;2022-09-09T06:10:11;1.95;;;0.85;;
34184;SDS011;20454;48.100;11.776;2022-09-09T06:12:40;0.80;;;0.70;;
34184;SDS011;20454;48.100;11.776;2022-09-09T06:15:06;1.00;;;0.80;;
34184;SDS011;20454;48.100;11.776;2022-09-09T06:17:34;1.02;;;0.98;;
34184;SDS011;20454;48.100;11.776;2022-09-09T06:19:59;0.77;;;0.77;;
34184;SDS011;20454;48.100;11.776;2022-09-09T06:22:25;0.98;;;0.98;;
34184;SDS011;20454;48.100;11.776;2022-09-09T06:24:51;0.77;;;0.50;;
34184;SDS011;20454;48.100;11.776;2022-09-09T06:53:15;0.77;;;0.70;;
34184;SDS011;20454;48.100;11.776;2022-09-09T06:55:44;0.82;;;0.80;;
34184;SDS011;20454;48.100;11.776;2022-09-09T06:58:10;0.98;;;0.60;;
34184;SDS011;20454;48.100;11.776;2022-09-09T07:00:36;2.08;;;0.80;;
34184;SDS011;20454;48.100;11.776;2022-09-09T07:03:04;0.77;;;0.70;;
34184;SDS011;20454;48.100;11.776;2022-09-09T07:07:59;2.42;;;0.77;;
34184;SDS011;20454;48.100;11.776;2022-09-09T13:26:53;1.23;;;0.35;;
34184;SDS011;20454;48.100;11.776;2022-09-09T13:29:23;0.30;;;0.30;;
34184;SDS011;20454;48.100;11.776;2022-09-09T13:31:50;0.57;;;0.50;;
34184;SDS011;20454;48.100;11.776;2022-09-09T13:34:28;0.52;;;0.30;;
34184;SDS011;20454;48.100;11.776;2022-09-09T13:37:02;0.35;;;0.35;;
34184;SDS011;20454;48.100;11.776;2022-09-09T13:39:50;0.52;;;0.47;;
34184;SDS011;20454;48.100;11.776;2022-09-09T13:44:53;2.05;;;0.55;;
34184;SDS011;20454;48.100;11.776;2022-09-09T13:47:26;1.98;;;0.50;;
34184;SDS011;20454;48.100;11.776;2022-09-09T13:50:18;0.77;;;0.40;;
34184;SDS011;20454;48.100;11.776;2022-09-09T13:52:48;1.13;;;0.40;;
34184;SDS011;20454;48.100;11.776;2022-09-09T13:55:22;0.75;;;0.73;;
34184;SDS011;20454;48.100;11.776;2022-09-09T13:57:51;2.22;;;0.47;;
34184;SDS011;20454;48.100;11.776;2022-09-09T14:00:22;1.02;;;0.25;;
34184;SDS011;20454;48.100;11.776;2022-09-09T14:02:52;0.30;;;0.30;;
34184;SDS011;20454;48.100;11.776;2022-09-09T14:05:20;3.38;;;0.60;;
34184;SDS011;20454;48.100;11.776;2022-09-09T14:07:47;0.57;;;0.50;;
34184;SDS011;20454;48.100;11.776;2022-09-09T14:10:14;1.63;;;0.50;;
34184;SDS011;20454;48.100;11.776;2022-09-09T14:12:40;0.32;;;0.32;;
34184;SDS011;20454;48.100;11.776;2022-09-09T14:15:06;0.57;;;0.30;;
34184;SDS011;20454;48.100;11.776;2022-09-09T14:17:34;0.22;;;0.22;;
34184;SDS011;20454;48.100;11.776;2022-09-09T14:20:01;1.85;;;0.50;;
34184;SDS011;20454;48.100;11.776;2022-09-09T14:22:35;0.45;;;0.40;;
34184;SDS011;20454;48.100;11.776;2022-09-09T14:25:01;0.30;;;0.30;;
34184;SDS011;20454;48.100;11.776;2022-09-09T14:27:28;0.40;;;0.40;;
34184;SDS011;20454;48.100;11.776;2022-09-09T14:29:55;1.45;;;0.40;;
34184;SDS011;20454;48.100;11.776;2022-09-09T14:32:21;0.45;;;0.32;;
34184;SDS011;20454;48.100;11.776;2022-09-09T14:34:47;0.90;;;0.40;;
34184;SDS011;20454;48.100;11.776;2022-09-09T14:37:16;0.73;;;0.40;;
34184;SDS011;20454;48.100;11.776;2022-09-09T14:39:42;1.33;;;0.43;;
34184;SDS011;20454;48.100;11.776;2022-09-09T14:42:12;0.90;;;0.40;;
34184;SDS011;20454;48.100;11.776;2022-09-09T14:44:39;0.98;;;0.38;;
34184;SDS011;20454;48.100;11.776;2022-09-09T14:47:05;0.73;;;0.35;;
34184;SDS011;20454;48.100;11.776;2022-09-09T14:49:35;0.50;;;0.38;;
34184;SDS011;20454;48.100;11.776;2022-09-09T16:14:57;0.75;;;0.57;;
34184;SDS011;20454;48.100;11.776;2022-09-09T16:17:24;2.40;;;0.60;;
34184;SDS011;20454;48.100;11.776;2022-09-09T16:19:50;1.65;;;0.50;;
34184;SDS011;20454;48.100;11.776;2022-09-09T16:22:16;0.40;;;0.40;;
34184;SDS011;20454;48.100;11.776;2022-09-09T16:24:42;0.82;;;0.50;;
34184;SDS011;20454;48.100;11.776;2022-09-09T16:27:09;0.38;;;0.32;;
34184;SDS011;20454;48.100;11.776;2022-09-09T16:29:36;0.50;;;0.50;;
34184;SDS011;20454;48.100;11.776;2022-09-09T16:32:02;0.90;;;0.40;;
34184;SDS011;20454;48.100;11.776;2022-09-09T16:34:28;1.67;;;0.35;;
34184;SDS011;20454;48.100;11.776;2022-09-09T16:36:54;0.68;;;0.45;;
34184;SDS011;20454;48.100;11.776;2022-09-09T16:39:20;0.43;;;0.40;;
34184;SDS011;20454;48.100;11.776;2022-09-09T16:41:46;0.68;;;0.57;;
34184;SDS011;20454;48.100;11.776;2022-09-09T16:44:14;2.15;;;0.77;;
34184;SDS011;20454;48.100;11.776;2022-09-09T16:46:43;0.40;;;0.30;;
34184;SDS011;20454;48.100;11.776;2022-09-09T16:49:11;1.50;;;0.68;;
34184;SDS011;20454;48.100;11.776;2022-09-09T16:51:43;1.67;;;0.95;;
34184;SDS011;20454;48.100;11.776;2022-09-09T16:54:15;0.57;;;0.40;;
34184;SDS011;20454;48.100;11.776;2022-09-09T16:56:43;0.63;;;0.47;;
34184;SDS011;20454;48.100;11.776;2022-09-09T16:59:13;0.38;;;0.32;;
34184;SDS011;20454;48.100;11.776;2022-09-09T17:01:41;0.77;;;0.50;;
34184;SDS011;20454;48.100;11.776;2022-09-09T17:04:11;5.35;;;0.68;;
34184;SDS011;20454;48.100;11.776;2022-09-09T17:06:48;1.58;;;0.40;;
34184;SDS011;20454;48.100;11.776;2022-09-09T17:09:16;0.45;;;0.45;;
34184;SDS011;20454;48.100;11.776;2022-09-09T17:11:44;0.68;;;0.43;;
34184;SDS011;20454;48.100;11.776;2022-09-09T17:14:11;1.40;;;0.50;;
34184;SDS011;20454;48.100;11.776;2022-09-09T17:16:41;2.15;;;0.60;;
34184;SDS011;20454;48.100;11.776;2022-09-09T17:19:08;0.45;;;0.40;;
34184;SDS011;20454;48.100;11.776;2022-09-09T18:18:35;1.27;;;0.52;;
34184;SDS011;20454;48.100;11.776;2022-09-09T18:21:05;0.63;;;0.55;;
34184;SDS011;20454;48.100;11.776;2022-09-09T18:23:34;1.30;;;0.60;;
34184;SDS011;20454;48.100;11.776;2022-09-09T18:26:08;1.33;;;0.80;;
34184;SDS011;20454;48.100;11.776;2022-09-09T18:28:40;1.48;;;0.85;;
34184;SDS011;20454;48.100;11.776;2022-09-09T18:31:08;0.70;;;0.70;;
34184;SDS011;20454;48.100;11.776;2022-09-09T18:33:37;0.52;;;0.52;;
34184;SDS011;20454;48.100;11.776;2022-09-09T18:36:07;0.80;;;0.80;;
34184;SDS011;20454;48.100;11.776;2022-09-09T18:38:36;1.13;;;0.57;;
34184;SDS011;20454;48.100;11.776;2022-09-09T18:43:45;0.73;;;0.73;;
34184;SDS011;20454;48.100;11.776;2022-09-09T18:46:13;0.70;;;0.70;;
34184;SDS011;20454;48.100;11.776;2022-09-09T18:48:41;0.73;;;0.68;;
34184;SDS011;20454;48.100;11.776;2022-09-09T18:51:09;1.98;;;1.10;;
34184;SDS011;20454;48.100;11.776;2022-09-09T18:53:38;2.85;;;0.70;;
34184;SDS011;20454;48.100;11.776;2022-09-09T18:56:08;1.88;;;0.80;;
34184;SDS011;20454;48.100;11.776;2022-09-09T18:58:36;1.08;;;0.70;;
34184;SDS011;20454;48.100;11.776;2022-09-09T19:01:04;0.60;;;0.60;;
34184;SDS011;20454;48.100;11.776;2022-09-09T19:03:36;1.88;;;0.77;;
34184;SDS011;20454;48.100;11.776;2022-09-09T19:06:03;1.42;;;0.90;;
34184;SDS011;20454;48.100;11.776;2022-09-09T19:08:33;1.80;;;0.82;;
34184;SDS011;20454;48.100;11.776;2022-09-09T19:11:03;1.85;;;0.65;;
34184;SDS011;20454;48.100;11.776;2022-09-09T19:13:32;1.05;;;0.80;;
34184;SDS011;20454;48.100;11.776;2022-09-09T19:16:06;1.63;;;0.88;;
34184;SDS011;20454;48.100;11.776;2022-09-09T19:18:37;1.00;;;1.00;;
34184;SDS011;20454;48.100;11.776;2022-09-09T19:21:23;1.00;;;1.00;;
34184;SDS011;20454;48.100;11.776;2022-09-09T19:23:59;1.38;;;1.00;;
34184;SDS011;20454;48.100;11.776;2022-09-09T19:26:30;1.75;;;1.08;;
34184;SDS011;20454;48.100;11.776;2022-09-09T19:29:04;3.10;;;1.10;;
34184;SDS011;20454;48.100;11.776;2022-09-09T19:31:40;0.80;;;0.80;;
34184;SDS011;20454;48.100;11.776;2022-09-09T19:34:07;4.90;;;1.10;;
34184;SDS011;20454;48.100;11.776;2022-09-09T19:36:33;1.08;;;0.90;;
34184;SDS011;20454;48.100;11.776;2022-09-09T19:38:59;1.48;;;0.80;;
34184;SDS011;20454;48.100;11.776;2022-09-09T19:41:27;1.30;;;0.80;;
34184;SDS011;20454;48.100;11.776;2022-09-09T19:43:56;1.05;;;0.98;;
34184;SDS011;20454;48.100;11.776;2022-09-09T19:46:28;4.75;;;0.88;;
34184;SDS011;20454;48.100;11.776;2022-09-09T19:48:58;0.98;;;0.95;;
34184;SDS011;20454;48.100;11.776;2022-09-09T19:51:25;3.30;;;1.00;;
34184;SDS011;20454;48.100;11.776;2022-09-09T19:54:06;1.98;;;1.20;;
34184;SDS011;20454;48.100;11.776;2022-09-09T19:56:36;3.95;;;1.25;;
34184;SDS011;20454;48.100;11.776;2022-09-09T19:59:04;1.20;;;0.85;;
34184;SDS011;20454;48.100;11.776;2022-09-09T20:01:36;2.78;;;1.17;;
34184;SDS011;20454;48.100;11.776;2022-09-09T20:04:10;1.20;;;1.00;;
34184;SDS011;20454;48.100;11.776;2022-09-09T20:06:38;1.27;;;1.10;;
34184;SDS011;20454;48.100;11.776;2022-09-09T20:09:09;2.08;;;0.93;;
34184;SDS011;20454;48.100;11.776;2022-09-09T20:11:38;0.80;;;0.80;;
34184;SDS011;20454;48.100;11.776;2022-09-09T20:14:05;5.13;;;1.25;;
34184;SDS011;20454;48.100;11.776;2022-09-09T20:16:32;1.50;;;0.80;;
34184;SDS011;20454;48.100;11.776;2022-09-09T20:18:59;1.00;;;0.90;;
34184;SDS011;20454;48.100;11.776;2022-09-09T20:21:30;1.15;;;1.05;;
34184;SDS011;20454;48.100;11.776;2022-09-09T20:24:06;1.40;;;1.30;;
34184;SDS011;20454;48.100;11.776;2022-09-09T20:26:34;2.20;;;1.27;;
34184;SDS011;20454;48.100;11.776;2022-09-09T20:29:02;1.05;;;1.05;;
34184;SDS011;20454;48.100;11.776;2022-09-09T20:31:34;1.55;;;1.10;;
34184;SDS011;20454;48.100;11.776;2022-09-09T20:34:04;1.10;;;0.90;;
34184;SDS011;20454;48.100;11.776;2022-09-09T20:36:34;2.17;;;1.27;;
34184;SDS011;20454;48.100;11.776;2022-09-09T20:39:03;1.67;;;1.02;;
34184;SDS011;20454;48.100;11.776;2022-09-09T20:41:31;1.40;;;0.98;;
34184;SDS011;20454;48.100;11.776;2022-09-09T20:44:01;2.58;;;1.60;;
34184;SDS011;20454;48.100;11.776;2022-09-09T20:46:40;1.05;;;0.93;;
34184;SDS011;20454;48.100;11.776;2022-09-09T20:49:11;3.58;;;1.40;;
34184;SDS011;20454;48.100;11.776;2022-09-09T20:51:40;1.05;;;0.93;;
34184;SDS011;20454;48.100;11.776;2022-09-09T20:54:08;1.73;;;1.20;;
34184;SDS011;20454;48.100;11.776;2022-09-09T20:56:41;1.90;;;1.55;;
34184;SDS011;20454;48.100;11.776;2022-09-09T20:59:28;5.30;;;1.80;;
34184;SDS011;20454;48.100;11.776;2022-09-09T21:01:58;1.50;;;1.40;;
34184;SDS011;20454;48.100;11.776;2022-09-09T21:04:26;1.25;;;1.15;;
34184;SDS011;20454;48.100;11.776;2022-09-09T21:06:52;2.20;;;1.50;;
34184;SDS011;20454;48.100;11.776;2022-09-09T21:09:18;4.03;;;1.35;;
34184;SDS011;20454;48.100;11.776;2022-09-09T21:11:46;2.55;;;1.13;;
34184;SDS011;20454;48.100;11.776;2022-09-09T21:14:12;4.72;;;1.40;;
34184;SDS011;20454;48.100;11.776;2022-09-09T21:16:38;1.48;;;0.85;;
34184;SDS011;20454;48.100;11.776;2022-09-09T21:19:04;0.93;;;0.90;;
34184;SDS011;20454;48.100;11.776;2022-09-09T21:21:30;1.02;;;0.90;;
34184;SDS011;20454;48.100;11.776;2022-09-09T21:23:56;2.60;;;1.10;;
34184;SDS011;20454;48.100;11.776;2022-09-09T21:26:24;2.83;;;1.08;;
34184;SDS011;20454;48.100;11.776;2022-09-09T21:28:51;1.10;;;0.98;;
34184;SDS011;20454;48.100;11.776;2022-09-09T21:31:18;2.50;;;1.10;;
34184;SDS011;20454;48.100;11.776;2022-09-09T21:33:45;2.20;;;1.00;;
34184;SDS011;20454;48.100;11.776;2022-09-09T21:36:11;1.15;;;0.90;;
34184;SDS011;20454;48.100;11.776;2022-09-09T21:38:38;3.10;;;1.20;;
34184;SDS011;20454;48.100;11.776;2022-09-09T21:41:05;0.80;;;0.80;;
34184;SDS011;20454;48.100;11.776;2022-09-09T21:43:37;1.20;;;1.10;;
34184;SDS011;20454;48.100;11.776;2022-09-09T21:46:07;1.58;;;0.60;;
34184;SDS011;20454;48.100;11.776;2022-09-09T21:48:35;0.98;;;0.90;;
34184;SDS011;20454;48.100;11.776;2022-09-09T21:51:03;1.63;;;1.10;;
34184;SDS011;20454;48.100;11.776;2022-09-09T21:53:32;0.80;;;0.80;;
34184;SDS011;20454;48.100;11.776;2022-09-09T21:56:02;1.88;;;0.65;;
34184;SDS011;20454;48.100;11.776;2022-09-09T21:58:34;3.33;;;0.85;;
34184;SDS011;20454;48.100;11.776;2022-09-09T22:01:00;0.93;;;0.90;;
34184;SDS011;20454;48.100;11.776;2022-09-09T22:03:26;1.50;;;1.17;;
34184;SDS011;20454;48.100;11.776;2022-09-09T22:05:52;4.03;;;0.80;;
34184;SDS011;20454;48.100;11.776;2022-09-09T22:08:18;1.20;;;0.82;;
34184;SDS011;20454;48.100;11.776;2022-09-09T22:10:44;1.27;;;0.85;;
34184;SDS011;20454;48.100;11.776;2022-09-09T22:13:11;1.27;;;0.90;;
34184;SDS011;20454;48.100;11.776;2022-09-09T22:15:46;1.95;;;0.80;;
34184;SDS011;20454;48.100;11.776;2022-09-09T22:18:12;1.67;;;0.80;;
34184;SDS011;20454;48.100;11.776;2022-09-09T22:20:43;2.25;;;0.82;;
34184;SDS011;20454;48.100;11.776;2022-09-09T22:23:11;1.05;;;0.70;;
34184;SDS011;20454;48.100;11.776;2022-09-09T22:25:37;1.23;;;0.60;;
34184;SDS011;20454;48.100;11.776;2022-09-09T22:28:05;2.88;;;0.73;;
34184;SDS011;20454;48.100;11.776;2022-09-09T22:30:33;0.80;;;0.60;;
34184;SDS011;20454;48.100;11.776;2022-09-09T22:32:58;0.52;;;0.50;;
34184;SDS011;20454;48.100;11.776;2022-09-09T22:35:25;1.33;;;0.50;;
34184;SDS011;20454;48.100;11.776;2022-09-09T22:37:51;1.33;;;0.65;;
34184;SDS011;20454;48.100;11.776;2022-09-09T22:40:18;0.60;;;0.60;;
34184;SDS011;20454;48.100;11.776;2022-09-09T22:42:43;0.50;;;0.50;;
34184;SDS011;20454;48.100;11.776;2022-09-09T22:45:09;0.82;;;0.73;;
34184;SDS011;20454;48.100;11.776;2022-09-09T22:47:35;1.52;;;0.80;;
34184;SDS011;20454;48.100;11.776;2022-09-09T22:50:06;0.55;;;0.50;;
34184;SDS011;20454;48.100;11.776;2022-09-09T22:52:33;1.60;;;0.40;;
34184;SDS011;20454;48.100;11.776;2022-09-09T22:54:59;0.32;;;0.32;;
34184;SDS011;20454;48.100;11.776;2022-09-09T22:57:25;1.33;;;0.52;;
34184;SDS011;20454;48.100;11.776;2022-09-09T22:59:51;0.90;;;0.60;;
34184;SDS011;20454;48.100;11.776;2022-09-09T23:02:17;0.50;;;0.43;;
34184;SDS011;20454;48.100;11.776;2022-09-09T23:04:46;1.30;;;0.57;;
34184;SDS011;20454;48.100;11.776;2022-09-09T23:07:12;0.20;;;0.20;;
34184;SDS011;20454;48.100;11.776;2022-09-09T23:09:39;0.40;;;0.40;;
34184;SDS011;20454;48.100;11.776;2022-09-09T23:12:04;1.17;;;0.45;;
34184;SDS011;20454;48.100;11.776;2022-09-09T23:14:32;0.35;;;0.35;;
34184;SDS011;20454;48.100;11.776;2022-09-09T23:16:58;0.88;;;0.30;;
34184;SDS011;20454;48.100;11.776;2022-09-09T23:19:26;0.40;;;0.40;;
34184;SDS011;20454;48.100;11.776;2022-09-09T23:21:52;0.28;;;0.28;;
34184;SDS011;20454;48.100;11.776;2022-09-09T23:24:19;5.50;;;0.40;;
34184;SDS011;20454;48.100;11.776;2022-09-09T23:26:44;1.35;;;0.40;;
34184;SDS011;20454;48.100;11.776;2022-09-09T23:29:11;0.50;;;0.30;;
34184;SDS011;20454;48.100;11.776;2022-09-09T23:31:39;0.30;;;0.30;;
34184;SDS011;20454;48.100;11.776;2022-09-09T23:34:08;0.73;;;0.40;;
34184;SDS011;20454;48.100;11.776;2022-09-09T23:36:36;0.57;;;0.38;;
34184;SDS011;20454;48.100;11.776;2022-09-09T23:39:03;0.40;;;0.40;;
34184;SDS011;20454;48.100;11.776;2022-09-09T23:41:31;0.30;;;0.30;;
34184;SDS011;20454;48.100;11.776;2022-09-09T23:43:59;3.63;;;0.40;;
34184;SDS011;20454;48.100;11.776;2022-09-09T23:46:26;2.10;;;0.68;;
34184;SDS011;20454;48.100;11.776;2022-09-09T23:48:54;0.52;;;0.50;;
34184;SDS011;20454;48.100;11.776;2022-09-09T23:51:22;1.02;;;0.38;;
34184;SDS011;20454;48.100;11.776;2022-09-09T23:53:51;0.40;;;0.40;;
34184;SDS011;20454;48.100;11.776;2022-09-09T23:56:22;0.63;;;0.40;;
34184;SDS011;20454;48.100;11.776;2022-09-09T23:58:50;0.30;;;0.30;;
